x

Halibut Bank (46146) Wave Buoy

12:00pm - Mon 30th May 2016 All times are PDT. -7 hours from GMT.

  • Sig Wave height 0.7ft
  • Peak Period 4s
  • Wind
    2mph
  • Sea Temp 61°f
  • Sea Pressure 1026.6mb
  • Halibut Bank
  • Halibut Bank

More Historic Weather Station data

Upgrade to MSW Pro to gain access to the past 30 days of data for over 8000 Wavebouys and Weather Stations around the globe.

Join Pro

Comparision Forecast

View Surf forecast
   
Mon 05/30 12:00pm 0.7ft 4s 2
mph
1026.6mb 61f
11:00am 0.7ft 3s 4 7 mph 1026.7mb 59f
10:00am 0.7ft 3s 7 9 mph 1026.9mb 59f
9:00am 0.7ft 2s 7 9 mph 1027.1mb 58f
8:00am 1ft 2s 9 11 mph 1026.9mb 58f
7:00am 1ft 3s 7 11 mph 1026.6mb 58f
6:00am 1ft 3s 4 7 mph 1026mb 58f
5:00am 1ft 3s 2 7 mph 1025.6mb 58f
4:00am 0.3ft 2s 9
mph
1025.3mb 58f
3:00am 0.3ft 2s 4
mph
1025.1mb 58f
2:00am 0.3ft 2s 7
mph
1024.5mb 58f
1:00am 0.7ft 3s 7 9 mph 1023.9mb 58f
12:00am 1ft 3s 9 13 mph 1023.5mb 59f
Sun 05/29 11:00pm 1ft 3s 4 9 mph 1023.2mb 59f
10:00pm 1ft 3s 7 9 mph 1022.5mb 58f
9:00pm 1ft 3s 7 9 mph 1022mb 59f
8:00pm 1ft 3s 9 13 mph 1021.5mb 59f
7:00pm 1ft 3s 13 16 mph 1021.1mb 59f
6:00pm 1ft 3s 16 18 mph 1020.9mb 59f
5:00pm 1.3ft 3s 13 16 mph 1020.8mb 58f
4:00pm 1.3ft 3s 13 16 mph 1020.8mb 58f
3:00pm 1.6ft 4s 13
mph
1020.8mb 58f
2:00pm 1.6ft 4s 13 16 mph 1020.6mb 58f
1:00pm 1.3ft 4s 16 20 mph 1020.4mb 58f
12:00pm 1.6ft 4s 13 16 mph 1020.1mb 58f
11:00am 1.6ft 3s 18 20 mph 1019.6mb 57f
10:00am 1.3ft 3s 18 20 mph 1019.3mb 57f
9:00am 1ft 3s 16 18 mph 1019.1mb 56f
8:00am 1ft 3s 13
mph
1018.5mb 56f
7:00am 1ft 3s 11 13 mph 1018.1mb 56f
6:00am 0.7ft 3s 11 13 mph 1017.7mb 56f
5:00am 0.7ft 3s 9 13 mph 1017.3mb 56f
4:00am 1ft 6s 11 13 mph 1016.8mb 56f
3:00am 1ft 2s 11 13 mph 1016.4mb 56f
2:00am 1ft 3s 11 13 mph 1016.1mb 56f
1:00am 1ft 3s 11 13 mph 1015.9mb 56f
12:00am 1ft 3s 13
mph
1015.7mb 56f
Sat 05/28 11:00pm 1ft 3s 13 16 mph 1015.6mb 56f
10:00pm 1.3ft 3s 4
mph
1015.4mb 56f
9:00pm 1.6ft 3s 11
mph
1015.1mb 57f
8:00pm 1.6ft 4s 7 9 mph 1014.8mb 57f
7:00pm 2.5ft 5s 13 18 mph 1014.6mb 56f
6:00pm 2.5ft 5s 16 20 mph 1014.4mb 56f
5:00pm 3.5ft 5s 13 18 mph 1014.3mb 57f
4:00pm 4ft 5s 18 22 mph 1014.3mb 57f
3:00pm 4.5ft 5s 20 25 mph 1014.2mb 57f
2:00pm 4.5ft 5s 20 25 mph 1014.1mb 57f
1:00pm 4.5ft 5s 22 29 mph 1013.8mb 57f
12:00pm 3.5ft 5s 27 36 mph 1013.9mb 57f
11:00am 3.5ft 4s 27 31 mph 1013.8mb 57f
10:00am 3.5ft 4s 25 31 mph 1014mb 57f
9:00am 3.5ft 4s 27 31 mph 1014.5mb 57f
8:00am 3ft 3s 25 31 mph 1015mb 58f
7:00am 1.6ft 3s 22 27 mph 1015.4mb 58f
6:00am 1.3ft 3s 20 22 mph 1016mb 58f
5:00am 1ft 3s 13 18 mph 1016.4mb 58f
4:00am 1ft 2s 9 11 mph 1016.9mb 58f
3:00am 0.7ft 2s 16 18 mph 1017.1mb 59f
2:00am 0.7ft 2s 7
mph
1017.2mb 58f
1:00am 0.3ft 2s 11 16 mph 1017.6mb 58f
12:00am 0.3ft 3s 4 7 mph 1018mb 59f
Fri 05/27 11:00pm 0.3ft 6s 4
mph
1018.1mb 58f
10:00pm 0.3ft 3s 2 4 mph 1018.4mb 58f
9:00pm 0.7ft 2s 4 7 mph 1018.1mb 59f
8:00pm 0.7ft 6s 11 13 mph 1018.3mb 59f
7:00pm 1ft 2s 9 11 mph 1018.5mb 59f
6:00pm 0.7ft 4s 22 27 mph 1018.8mb 60f
5:00pm 0.7ft 2s 2 4 mph 1018.8mb 60f
4:00pm 0.3ft 6s 11 13 mph 1019mb 60f
3:00pm 0.7ft 3s 9 11 mph 1019.5mb 60f
2:00pm 0.7ft 3s 9 11 mph 1019.5mb 60f
1:00pm 0.7ft 3s 4
mph
1019.6mb 60f
12:00pm 1ft 3s 9
mph
1019.8mb 59f
11:00am 1ft 3s 7 11 mph 1019.6mb 58f
10:00am 1.3ft 3s 9 11 mph 1019.5mb 58f
9:00am 1.3ft 3s 11 13 mph 1019.3mb 57f
8:00am 1.3ft 3s 13 18 mph 1019.3mb 57f
7:00am 1ft 4s 11 13 mph 1019.1mb 57f
6:00am 1ft 3s 11 13 mph 1018.9mb 57f
4:00am 1.3ft 4s 11 13 mph 1018.6mb 58f
3:00am 2ft 4s 16 18 mph 1018.6mb 58f
2:00am 1.6ft 4s 16 20 mph 1018.3mb 58f
1:00am 0.7ft 2s 18 22 mph 1018.1mb 58f
12:00am 0.3ft 3s 4 7 mph 1018.4mb 58f
Thu 05/26 11:00pm 0.7ft 3s 2
mph
1018.8mb 58f
10:00pm 0.7ft 3s 2 4 mph 1018.7mb 58f
9:00pm 1ft 3s 4 7 mph 1018.7mb 58f